Hauptseite
METAR-TAF:

METAR-TAF

Flughäfen :

Al-Wadschh, Saudi-Arabien

Breite: 26-12N, Länge: 036-28E, Höhe: 20 m

Beobachtung

Neuester Wetterbericht von vor 58 Minuten, um 05:00 UTC
Wind 3 kt aus Ost
Temperatur 30°C
Luftfeuchtigkeit 70%
Luftdruck 1003 hPa
Sichtweite 10 km oder mehr
keine Wolken unter 1500 m und keine Kumulonimbus oder Gewitterwolken

METAR: OEWJ 250500Z 09003KT CAVOK 30/24 Q1003 NOSIG

Zeit: 08:58 (05:58 UTC)

Prognose

Neuester Wetterbericht von vor 6 Stunden und 58 Minuten, um 23:00 UTC
Gültige Prognose vom 25 um 00 UTC bis 26 um 06 UTC
Wind 4 kt aus West/Nordwest
Sichtweite 10 km oder mehr
keine Wolken unter 1500 m und keine Kumulonimbus oder Gewitterwolken
Übergehend zu
vom 25 um 08 UTC bis 25 um 10 UTC
Wind 14 kt aus Nord/Nordwest
Übergehend zu
vom 25 um 18 UTC bis 25 um 20 UTC
Wind 7 kt aus Nord

TAF: OEWJ 242300Z 2500/2606 30004KT CAVOK BECMG 2508/2510 34014KT BECMG 2518/2520 36007KT

Wetterbeobachtungen und Prognosen von mehr als 4000 Flughäfen (METAR und TAF Bericht).

Die verfügbaren Stationen werden durch gelbe und rote Markierungen auf der Karte dargestellt.

Führen Sie die Maus auf sie, um den Namen der Station zu sehen.

Darauf klicken, um die Beobachtung von Wetterbeobachtungen und Prognosen zu sehen.

Um die Karte zu ändern : klicken Sie auf den grünen Tasten mit einem schwarzen Kreuz Zum Vergrößern, auf den grünen Button mit einem Gedankenstrich zu verkleinern, oder auf die grünen Pfeile für benachbarte Karten.


METAR-TAF: